createdAt,value
2023-01-02T00:02:22.401Z,1.83
2023-01-02T00:04:48.982Z,3.67
2023-01-02T00:07:15.567Z,3.28
2023-01-02T00:09:42.113Z,3.42
2023-01-02T00:12:08.568Z,3.22
2023-01-02T00:14:35.243Z,4.85
2023-01-02T00:17:01.782Z,2.72
2023-01-02T00:19:28.273Z,2.85
2023-01-02T00:21:55.064Z,2.03
2023-01-02T00:24:21.750Z,2.30
2023-01-02T00:26:48.234Z,2.33
2023-01-02T00:29:15.132Z,2.15
2023-01-02T00:31:41.796Z,3.38
2023-01-02T00:34:08.346Z,1.58
2023-01-02T00:36:35.027Z,3.72
2023-01-02T00:39:01.483Z,2.45
2023-01-02T00:41:28.108Z,2.72
2023-01-02T00:43:54.621Z,2.70
2023-01-02T00:46:21.199Z,2.85
2023-01-02T00:48:47.772Z,3.22
2023-01-02T00:51:14.386Z,2.88
2023-01-02T00:53:41.084Z,2.20
2023-01-02T00:56:07.772Z,3.03
2023-01-02T00:58:34.947Z,2.42
2023-01-02T01:01:01.788Z,2.17
2023-01-02T01:03:28.645Z,3.85
2023-01-02T01:05:55.569Z,2.95
2023-01-02T01:08:22.147Z,1.77
2023-01-02T01:10:48.625Z,1.52
2023-01-02T01:13:15.726Z,3.55
2023-01-02T01:15:42.756Z,3.05
2023-01-02T01:18:09.311Z,3.47
2023-01-02T01:20:39.237Z,5.63
2023-01-02T01:23:05.782Z,2.10
2023-01-02T01:25:32.435Z,3.17
2023-01-02T01:27:58.977Z,2.25
2023-01-02T01:30:25.761Z,2.38
2023-01-02T01:32:52.246Z,2.53
2023-01-02T01:35:18.928Z,2.53
2023-01-02T01:37:45.461Z,2.20
2023-01-02T01:40:11.983Z,2.03
2023-01-02T01:42:38.445Z,2.28
2023-01-02T01:45:13.090Z,3.22
2023-01-02T01:47:47.393Z,3.42
2023-01-02T01:50:21.812Z,2.53
2023-01-02T01:52:55.130Z,2.70
2023-01-02T01:55:31.791Z,2.83
2023-01-02T01:58:05.624Z,3.28
2023-01-02T02:00:34.044Z,4.45
2023-01-02T02:03:07.318Z,4.53
2023-01-02T02:05:34.493Z,6.70
2023-01-02T02:08:40.153Z,2.92
2023-01-02T02:11:07.780Z,3.05
2023-01-02T02:13:34.465Z,3.47
2023-01-02T02:16:18.136Z,3.63
2023-01-02T02:19:07.043Z,4.82
2023-01-02T02:21:55.069Z,3.50
2023-01-02T02:24:59.240Z,2.75
2023-01-02T02:27:37.663Z,3.80
2023-01-02T02:30:08.199Z,4.68
2023-01-02T02:32:39.748Z,2.97
2023-01-02T02:35:22.227Z,2.22
2023-01-02T02:37:57.831Z,3.90
2023-01-02T02:40:42.934Z,3.63
2023-01-02T02:43:28.418Z,4.05
2023-01-02T02:46:01.057Z,3.13
2023-01-02T02:48:53.811Z,1.70
2023-01-02T02:51:34.648Z,3.88
2023-01-02T02:54:23.957Z,25.92
2023-01-02T02:56:52.990Z,3.35
2023-01-02T02:59:20.381Z,4.90
2023-01-02T03:01:47.205Z,3.67
2023-01-02T03:04:19.644Z,2.65
2023-01-02T03:07:06.754Z,4.15
2023-01-02T03:09:45.070Z,2.50
2023-01-02T03:12:34.756Z,3.53
2023-01-02T03:15:26.474Z,3.72
2023-01-02T03:18:29.928Z,3.78
2023-01-02T03:21:13.016Z,6.28
2023-01-02T03:23:45.915Z,2.67
2023-01-02T03:26:16.894Z,2.90
2023-01-02T03:28:47.038Z,3.33
2023-01-02T03:31:18.796Z,2.90
2023-01-02T03:34:11.454Z,7.55
2023-01-02T03:36:41.181Z,3.53
2023-01-02T03:39:12.927Z,3.28
2023-01-02T03:41:57.882Z,3.50
2023-01-02T03:44:29.040Z,2.05
2023-01-02T03:47:07.872Z,5.05
2023-01-02T03:49:43.215Z,5.25
2023-01-02T03:52:09.922Z,5.35
2023-01-02T03:54:37.764Z,2.33
2023-01-02T03:57:24.835Z,2.88
2023-01-02T04:00:07.344Z,3.83
2023-01-02T04:02:52.088Z,5.43
2023-01-02T04:05:44.401Z,3.65
2023-01-02T04:08:24.166Z,4.55
2023-01-02T04:10:58.220Z,3.22
2023-01-02T04:13:34.039Z,4.65
2023-01-02T04:16:03.760Z,5.07
2023-01-02T04:18:37.285Z,2.40
2023-01-02T04:21:12.518Z,2.70
2023-01-02T04:23:42.502Z,4.88
2023-01-02T04:26:18.196Z,3.65
2023-01-02T04:28:45.055Z,3.67
2023-01-02T04:31:23.296Z,4.75
2023-01-02T04:33:57.293Z,2.88
2023-01-02T04:36:24.240Z,2.55
2023-01-02T04:38:51.219Z,2.97
2023-01-02T04:41:24.154Z,2.22
2023-01-02T04:43:50.703Z,2.35
2023-01-02T04:46:17.407Z,2.97
2023-01-02T04:48:43.876Z,2.13
2023-01-02T04:51:10.475Z,2.55
2023-01-02T04:53:37.001Z,1.60
2023-01-02T04:56:03.605Z,1.65
2023-01-02T04:58:30.239Z,3.03
2023-01-02T05:00:56.706Z,1.83
2023-01-02T05:03:23.396Z,2.22
2023-01-02T05:05:50.031Z,2.58
2023-01-02T05:08:16.870Z,3.05
2023-01-02T05:10:43.491Z,2.53
2023-01-02T05:13:10.138Z,6.10
2023-01-02T05:15:37.079Z,3.13
2023-01-02T05:18:03.785Z,1.70
2023-01-02T05:20:30.299Z,1.23
2023-01-02T05:22:56.933Z,3.88
2023-01-02T05:25:24.164Z,3.85
2023-01-02T05:27:57.276Z,2.53
2023-01-02T05:30:25.294Z,1.90
2023-01-02T05:32:53.097Z,1.88
2023-01-02T05:35:19.808Z,2.85
2023-01-02T05:37:46.430Z,2.17
2023-01-02T05:40:13.382Z,2.17
2023-01-02T05:42:40.056Z,1.40
2023-01-02T05:45:07.268Z,2.28
2023-01-02T05:47:33.807Z,1.90
2023-01-02T05:50:00.441Z,1.42
2023-01-02T05:52:26.988Z,2.22
2023-01-02T05:54:53.603Z,1.73
2023-01-02T05:57:20.428Z,1.30
2023-01-02T05:59:46.892Z,1.92
2023-01-02T06:02:13.517Z,2.38
2023-01-02T06:04:41.218Z,1.55
2023-01-02T06:07:07.706Z,2.47
2023-01-02T06:09:34.373Z,3.05
2023-01-02T06:12:00.825Z,1.33
2023-01-02T06:14:27.494Z,4.75
2023-01-02T06:16:54.053Z,2.13
2023-01-02T06:19:21.109Z,2.17
2023-01-02T06:21:47.639Z,6.45
2023-01-02T06:24:14.311Z,2.10
2023-01-02T06:26:40.942Z,1.08
2023-01-02T06:29:07.455Z,2.58
2023-01-02T06:31:34.102Z,1.45
2023-01-02T06:34:02.650Z,2.95
2023-01-02T06:36:32.012Z,1.45
2023-01-02T06:38:58.847Z,1.55
2023-01-02T06:41:26.152Z,2.17
2023-01-02T06:43:54.085Z,0.93
2023-01-02T06:46:22.914Z,2.13
2023-01-02T06:48:50.279Z,1.48
2023-01-02T06:51:19.993Z,1.90
2023-01-02T06:53:47.154Z,0.85
2023-01-02T06:56:17.141Z,1.20
2023-01-02T06:58:44.185Z,2.08
2023-01-02T07:01:19.639Z,2.30
2023-01-02T07:03:46.274Z,0.88
2023-01-02T07:06:21.183Z,1.35
2023-01-02T07:08:48.138Z,1.80
2023-01-02T07:11:23.621Z,1.95
2023-01-02T07:13:52.662Z,2.60
2023-01-02T07:16:20.935Z,2.88
2023-01-02T07:18:48.344Z,1.95
2023-01-02T07:21:16.234Z,1.33
2023-01-02T07:23:42.826Z,3.22
2023-01-02T07:26:10.272Z,2.63
2023-01-02T07:28:37.884Z,2.20
2023-01-02T07:31:07.796Z,2.08
2023-01-02T07:33:34.924Z,4.05
2023-01-02T07:36:03.898Z,1.00
2023-01-02T07:38:30.854Z,3.50
2023-01-02T07:40:57.469Z,7.28
2023-01-02T07:43:24.278Z,3.10
2023-01-02T07:45:51.215Z,16.80
2023-01-02T07:48:18.661Z,14.68
2023-01-02T07:50:46.032Z,13.95
2023-01-02T07:53:14.871Z,11.63
2023-01-02T07:55:41.435Z,13.35
2023-01-02T07:58:08.119Z,25.23
2023-01-02T08:00:34.648Z,25.90
2023-01-02T08:03:01.411Z,7.25
2023-01-02T08:05:27.941Z,4.32
2023-01-02T08:07:54.687Z,5.18
2023-01-02T08:10:21.267Z,4.97
2023-01-02T08:12:47.749Z,8.30
2023-01-02T08:15:14.391Z,10.80
2023-01-02T08:17:40.873Z,8.55
2023-01-02T08:20:08.580Z,5.03
2023-01-02T08:22:35.458Z,5.80
2023-01-02T08:25:02.149Z,7.22
2023-01-02T08:27:28.629Z,6.30
2023-01-02T08:29:55.212Z,8.05
2023-01-02T08:32:21.738Z,11.38
2023-01-02T08:34:48.280Z,10.32
2023-01-02T08:37:15.171Z,7.28
2023-01-02T08:39:41.766Z,7.97
2023-01-02T08:42:08.646Z,6.22
2023-01-02T08:44:36.614Z,4.30
2023-01-02T08:47:04.441Z,2.70
2023-01-02T08:49:31.044Z,2.40
2023-01-02T08:51:57.619Z,1.67
2023-01-02T08:54:24.110Z,3.05
2023-01-02T08:56:53.060Z,1.35
2023-01-02T08:59:19.690Z,1.85
2023-01-02T09:01:46.363Z,3.97
2023-01-02T09:04:13.595Z,11.23
2023-01-02T09:06:41.541Z,7.03
2023-01-02T09:09:12.151Z,15.80
2023-01-02T09:11:43.995Z,16.50
2023-01-02T09:14:10.668Z,14.57
2023-01-02T09:16:37.440Z,12.32
2023-01-02T09:19:04.327Z,5.65
2023-01-02T09:21:30.963Z,5.15
2023-01-02T09:23:57.807Z,5.07
2023-01-02T09:26:24.477Z,10.13
2023-01-02T09:28:51.085Z,11.85
2023-01-02T09:31:18.597Z,9.23
2023-01-02T09:33:48.148Z,15.02
2023-01-02T09:36:18.194Z,15.95
2023-01-02T09:38:49.936Z,13.52
2023-01-02T09:41:22.020Z,6.72
2023-01-02T09:43:55.196Z,8.55
2023-01-02T09:46:35.488Z,8.73
2023-01-02T09:49:03.004Z,6.07
2023-01-02T09:51:31.124Z,5.03
2023-01-02T09:56:33.748Z,2.03
2023-01-02T09:59:12.694Z,3.70
2023-01-02T10:02:07.227Z,1.65
2023-01-02T10:04:47.234Z,1.25
2023-01-02T10:07:24.375Z,2.08
2023-01-02T10:10:08.016Z,1.97
2023-01-02T10:12:47.812Z,1.60
2023-01-02T10:15:20.601Z,1.10
2023-01-02T10:17:51.950Z,0.75
2023-01-02T10:20:24.767Z,2.47
2023-01-02T10:22:57.810Z,1.55
2023-01-02T10:25:33.431Z,1.40
2023-01-02T10:28:14.846Z,1.58
2023-01-02T10:30:48.340Z,1.60
2023-01-02T10:33:22.176Z,0.40
2023-01-02T10:35:55.345Z,0.20
2023-01-02T10:38:21.975Z,0.43
2023-01-02T10:40:50.886Z,1.10
2023-01-02T10:43:18.428Z,2.78
2023-01-02T10:45:45.100Z,1.08
2023-01-02T10:48:11.755Z,0.57
2023-01-02T10:50:52.971Z,1.35
2023-01-02T10:53:22.948Z,2.13
2023-01-02T10:55:49.488Z,0.80
2023-01-02T10:58:23.604Z,1.52
2023-01-02T11:01:17.669Z,1.67
2023-01-02T11:03:46.095Z,0.47
2023-01-02T11:06:30.044Z,0.57
2023-01-02T11:09:22.691Z,1.17
2023-01-02T11:12:08.661Z,0.98
2023-01-02T11:14:37.005Z,0.77
2023-01-02T11:17:19.213Z,1.30
2023-01-02T11:19:54.675Z,0.57
2023-01-02T11:22:23.573Z,0.75
2023-01-02T11:25:00.630Z,2.28
2023-01-02T11:27:36.822Z,0.65
2023-01-02T11:30:07.562Z,1.73
2023-01-02T11:32:39.935Z,0.50
2023-01-02T11:35:36.490Z,1.20
2023-01-02T11:38:03.192Z,0.63
2023-01-02T11:40:31.954Z,1.48
2023-01-02T11:43:05.916Z,0.60
2023-01-02T11:45:33.977Z,0.57
2023-01-02T11:50:31.738Z,0.60
2023-01-02T11:53:09.900Z,27.40
2023-01-02T11:55:55.043Z,16.65
2023-01-02T11:58:42.760Z,7.88
2023-01-02T12:01:21.539Z,5.47
2023-01-02T12:03:48.424Z,2.22
2023-01-02T12:06:21.387Z,1.88
2023-01-02T12:09:11.510Z,1.63
2023-01-02T12:11:58.038Z,0.63
2023-01-02T12:15:01.775Z,0.35
2023-01-02T12:18:01.389Z,1.65
2023-01-02T12:20:38.987Z,0.73
2023-01-02T12:23:30.508Z,0.60
2023-01-02T12:26:11.943Z,1.70
2023-01-02T12:28:47.518Z,1.20
2023-01-02T12:31:45.998Z,0.65
2023-01-02T12:34:21.284Z,1.35
2023-01-02T12:37:18.305Z,1.77
2023-01-02T12:40:22.082Z,0.35
2023-01-02T12:43:24.387Z,0.55
2023-01-02T12:46:07.956Z,0.75
2023-01-02T12:49:18.571Z,1.27
2023-01-02T12:52:19.444Z,0.40
2023-01-02T12:55:17.052Z,1.45
2023-01-02T12:58:02.308Z,1.88
2023-01-02T13:00:41.565Z,4.57
2023-01-02T13:03:39.771Z,1.05
2023-01-02T13:06:44.447Z,0.70
2023-01-02T13:09:10.451Z,0.73
2023-01-02T13:11:48.358Z,1.08
2023-01-02T13:16:53.324Z,1.40
2023-01-02T13:19:48.791Z,1.05
2023-01-02T13:22:27.840Z,0.60
2023-01-02T13:24:57.206Z,1.52
2023-01-02T13:27:24.973Z,2.75
2023-01-02T13:29:53.424Z,5.15
2023-01-02T13:32:30.524Z,6.20
2023-01-02T13:35:01.980Z,1.03
2023-01-02T13:37:29.662Z,2.47
2023-01-02T13:40:02.001Z,4.05
2023-01-02T13:42:33.326Z,6.22
2023-01-02T13:45:00.393Z,3.58
2023-01-02T13:47:35.014Z,1.48
2023-01-02T13:50:01.752Z,1.10
2023-01-02T13:52:28.322Z,3.42
2023-01-02T13:55:16.664Z,2.92
2023-01-02T13:57:43.467Z,3.67
2023-01-02T14:00:34.027Z,2.17
2023-01-02T14:03:22.328Z,3.88
2023-01-02T14:06:29.573Z,0.90
2023-01-02T14:09:04.799Z,2.20
2023-01-02T14:11:56.627Z,2.40
2023-01-02T14:14:41.829Z,0.95
2023-01-02T14:17:42.044Z,2.80
2023-01-02T14:20:36.403Z,0.90
2023-01-02T14:23:06.618Z,1.83
2023-01-02T14:25:43.843Z,1.55
2023-01-02T14:28:23.547Z,1.50
2023-01-02T14:30:51.022Z,3.70
2023-01-02T14:33:30.849Z,2.25
2023-01-02T14:36:07.823Z,1.80
2023-01-02T14:38:53.932Z,1.85
2023-01-02T14:41:48.044Z,3.75
2023-01-02T14:44:15.642Z,15.10
2023-01-02T14:46:43.230Z,16.17
2023-01-02T14:49:25.560Z,13.35
2023-01-02T14:52:02.222Z,14.27
2023-01-02T14:54:49.887Z,13.88
2023-01-02T14:57:24.797Z,4.40
2023-01-02T14:59:53.297Z,3.97
2023-01-02T15:02:29.514Z,4.43
2023-01-02T15:05:03.683Z,3.72
2023-01-02T15:07:36.276Z,2.90
2023-01-02T15:10:10.320Z,3.58
2023-01-02T15:12:53.798Z,2.30
2023-01-02T15:15:25.257Z,3.67
2023-01-02T15:17:53.756Z,2.03
2023-01-02T15:20:23.655Z,2.67
2023-01-02T15:22:55.449Z,3.35
2023-01-02T15:25:40.947Z,3.05
2023-01-02T15:28:23.466Z,5.13
2023-01-02T15:30:59.165Z,3.83
2023-01-02T15:33:31.143Z,3.25
2023-01-02T15:36:06.195Z,4.55
2023-01-02T15:38:32.765Z,3.28
2023-01-02T15:40:59.472Z,2.63
2023-01-02T15:43:29.256Z,3.85
2023-01-02T15:45:56.211Z,4.00
2023-01-02T15:48:27.171Z,2.53
2023-01-02T15:50:58.871Z,1.70
2023-01-02T15:53:30.510Z,3.63
2023-01-02T15:55:58.212Z,3.03
2023-01-02T15:58:49.405Z,6.00
2023-01-02T16:01:22.922Z,2.60
2023-01-02T16:04:00.673Z,4.30
2023-01-02T16:06:35.334Z,1.88
2023-01-02T16:09:08.215Z,3.33
2023-01-02T16:11:48.353Z,4.13
2023-01-02T16:14:19.289Z,1.80
2023-01-02T16:16:51.229Z,1.77
2023-01-02T16:19:23.478Z,4.95
2023-01-02T16:21:52.140Z,7.50
2023-01-02T16:24:24.201Z,10.82
2023-01-02T16:26:51.159Z,11.90
2023-01-02T16:29:20.099Z,10.75
2023-01-02T16:32:00.391Z,9.85
2023-01-02T16:34:45.186Z,15.50
2023-01-02T16:37:17.114Z,14.80
2023-01-02T16:39:48.853Z,14.57
2023-01-02T16:42:15.376Z,16.30
2023-01-02T16:44:41.991Z,11.45
2023-01-02T16:47:10.416Z,9.70
2023-01-02T16:49:37.591Z,8.32
2023-01-02T16:52:04.172Z,6.72
2023-01-02T16:54:30.743Z,5.07
2023-01-02T16:56:57.229Z,7.10
2023-01-02T16:59:23.763Z,7.30
2023-01-02T17:01:50.426Z,7.05
2023-01-02T17:04:17.045Z,5.40
2023-01-02T17:06:43.549Z,5.00
2023-01-02T17:09:10.048Z,6.10
2023-01-02T17:11:37.494Z,10.02
2023-01-02T17:14:03.978Z,7.82
2023-01-02T17:16:30.510Z,8.98
2023-01-02T17:18:57.270Z,9.27
2023-01-02T17:21:27.735Z,5.20
2023-01-02T17:23:57.388Z,3.92
2023-01-02T17:26:24.891Z,5.45
2023-01-02T17:28:51.405Z,5.38
2023-01-02T17:31:22.571Z,5.15
2023-01-02T17:33:51.951Z,4.03
2023-01-02T17:36:18.469Z,6.57
2023-01-02T17:38:45.007Z,6.45
2023-01-02T17:41:11.517Z,5.13
2023-01-02T17:43:38.089Z,5.53
2023-01-02T17:46:38.760Z,5.53
2023-01-02T17:48:55.456Z,4.15
2023-01-02T17:51:21.959Z,2.63
2023-01-02T17:53:51.566Z,4.53
2023-01-02T17:56:20.411Z,1.98
2023-01-02T17:58:48.418Z,2.55
2023-01-02T18:01:20.412Z,1.25
2023-01-02T18:03:47.226Z,2.53
2023-01-02T18:06:14.341Z,2.38
2023-01-02T18:08:41.117Z,3.47
2023-01-02T18:11:13.643Z,2.75
2023-01-02T18:13:45.396Z,1.52
2023-01-02T18:16:18.558Z,3.75
2023-01-02T18:18:46.044Z,1.85
2023-01-02T18:21:15.498Z,1.02
2023-01-02T18:23:42.515Z,4.35
2023-01-02T18:26:13.879Z,0.88
2023-01-02T18:28:45.137Z,0.73
2023-01-02T18:31:16.662Z,5.15
2023-01-02T18:33:43.540Z,2.80
2023-01-02T18:36:21.603Z,2.50
2023-01-02T18:41:25.597Z,2.03
2023-01-02T18:44:02.904Z,3.28
2023-01-02T18:47:03.299Z,2.00
2023-01-02T18:49:27.505Z,2.65
2023-01-02T18:52:33.099Z,3.70
2023-01-02T18:55:28.992Z,2.83
2023-01-02T18:58:05.830Z,1.75
2023-01-02T19:00:34.225Z,1.90
2023-01-02T19:03:09.883Z,2.67
2023-01-02T19:05:39.623Z,1.73
2023-01-02T19:08:08.830Z,1.55
2023-01-02T19:10:42.480Z,3.10
2023-01-02T19:13:31.793Z,3.20
2023-01-02T19:16:03.518Z,2.08
2023-01-02T19:18:36.746Z,2.85
2023-01-02T19:21:32.764Z,2.60
2023-01-02T19:24:05.659Z,3.15
2023-01-02T19:26:33.632Z,5.55
2023-01-02T19:29:09.095Z,5.85
2023-01-02T19:31:43.083Z,3.33
2023-01-02T19:34:38.788Z,2.58
2023-01-02T19:37:10.815Z,4.38
2023-01-02T19:39:44.362Z,7.88
2023-01-02T19:42:11.820Z,3.72
2023-01-02T19:44:38.364Z,3.20
2023-01-02T19:47:05.321Z,13.40
2023-01-02T19:49:31.884Z,3.25
2023-01-02T19:51:58.387Z,2.33
2023-01-02T19:54:24.866Z,5.53
2023-01-02T19:56:51.499Z,2.63
2023-01-02T19:59:18.035Z,2.38
2023-01-02T20:01:45.020Z,7.60
2023-01-02T20:04:11.568Z,5.53
2023-01-02T20:06:39.075Z,3.05
2023-01-02T20:09:05.587Z,3.53
2023-01-02T20:11:32.223Z,3.38
2023-01-02T20:13:58.943Z,3.08
2023-01-02T20:16:25.613Z,2.55
2023-01-02T20:18:52.197Z,9.27
2023-01-02T20:21:18.756Z,4.93
2023-01-02T20:23:45.308Z,3.55
2023-01-02T20:26:12.136Z,3.13
2023-01-02T20:28:38.667Z,3.33
2023-01-02T20:31:05.331Z,8.77
2023-01-02T20:33:31.817Z,3.58
2023-01-02T20:35:58.321Z,4.82
2023-01-02T20:38:24.815Z,7.30
2023-01-02T20:40:51.288Z,2.55
2023-01-02T20:43:17.937Z,3.88
2023-01-02T20:45:44.451Z,6.50
2023-01-02T20:48:10.916Z,2.65
2023-01-02T20:50:37.436Z,13.20
2023-01-02T20:53:04.003Z,8.57
2023-01-02T20:55:30.623Z,3.65
2023-01-02T20:57:57.360Z,2.15
2023-01-02T21:00:24.028Z,3.78
2023-01-02T21:02:51.069Z,4.07
2023-01-02T21:05:17.735Z,4.20
2023-01-02T21:07:44.323Z,6.35
2023-01-02T21:10:10.896Z,4.22
2023-01-02T21:12:37.390Z,4.10
2023-01-02T21:15:03.973Z,2.97
2023-01-02T21:17:30.438Z,4.40
2023-01-02T21:19:56.908Z,6.30
2023-01-02T21:22:23.465Z,6.03
2023-01-02T21:24:50.054Z,4.47
2023-01-02T21:27:19.178Z,9.05
2023-01-02T21:29:45.708Z,4.15
2023-01-02T21:32:12.199Z,3.53
2023-01-02T21:34:38.862Z,10.15
2023-01-02T21:37:05.386Z,1.58
2023-01-02T21:39:31.934Z,6.00
2023-01-02T21:41:58.443Z,3.60
2023-01-02T21:44:24.885Z,3.58
2023-01-02T21:46:51.496Z,2.30
2023-01-02T21:49:17.953Z,2.75
2023-01-02T21:51:44.442Z,5.25
2023-01-02T21:54:11.155Z,5.47
2023-01-02T21:56:37.648Z,2.45
2023-01-02T21:59:04.132Z,7.22
2023-01-02T22:01:31.017Z,5.80
2023-01-02T22:03:57.683Z,5.63
2023-01-02T22:06:24.471Z,4.03
2023-01-02T22:08:51.092Z,2.50
2023-01-02T22:11:17.706Z,3.20
2023-01-02T22:13:44.246Z,4.25
2023-01-02T22:16:10.826Z,4.18
2023-01-02T22:18:38.581Z,2.85
2023-01-02T22:21:05.391Z,4.63
2023-01-02T22:23:32.012Z,3.92
2023-01-02T22:25:58.634Z,4.47
2023-01-02T22:28:25.366Z,5.05
2023-01-02T22:30:52.657Z,3.22
2023-01-02T22:33:19.367Z,7.30
2023-01-02T22:35:45.899Z,3.03
2023-01-02T22:38:12.456Z,2.92
2023-01-02T22:40:39.139Z,2.67
2023-01-02T22:43:06.565Z,7.75
2023-01-02T22:45:47.525Z,7.75
2023-01-02T22:48:30.357Z,4.78
2023-01-02T22:50:59.685Z,4.93
2023-01-02T22:53:32.259Z,3.83
2023-01-02T22:56:00.908Z,4.68
2023-01-02T22:58:27.570Z,4.70
2023-01-02T23:01:02.583Z,4.78
2023-01-02T23:03:32.173Z,5.53
2023-01-02T23:05:58.779Z,6.57
2023-01-02T23:08:25.374Z,7.68
2023-01-02T23:10:52.471Z,6.50
2023-01-02T23:13:18.955Z,5.13
2023-01-02T23:15:45.427Z,5.30
2023-01-02T23:18:12.007Z,8.10
2023-01-02T23:20:38.509Z,4.85
2023-01-02T23:23:04.995Z,5.93
2023-01-02T23:25:31.575Z,4.75
2023-01-02T23:27:58.043Z,7.15
2023-01-02T23:30:24.509Z,2.22
2023-01-02T23:32:51.042Z,8.50
2023-01-02T23:35:17.630Z,3.90
2023-01-02T23:37:44.103Z,5.10
2023-01-02T23:40:11.357Z,5.47
2023-01-02T23:42:37.893Z,3.40
2023-01-02T23:45:04.798Z,5.38
2023-01-02T23:47:31.262Z,3.35
2023-01-02T23:49:57.731Z,3.22
2023-01-02T23:52:24.380Z,2.45
2023-01-02T23:54:50.870Z,2.78
2023-01-02T23:57:17.411Z,3.13
2023-01-02T23:59:44.049Z,3.83
